createdAt,value
2018-04-23T00:02:14.993Z,100308
2018-04-23T00:04:41.719Z,100306
2018-04-23T00:07:08.593Z,100305
2018-04-23T00:09:35.356Z,100299
2018-04-23T00:12:02.945Z,100300
2018-04-23T00:14:30.417Z,100288
2018-04-23T00:16:57.167Z,100290
2018-04-23T00:19:24.306Z,100292
2018-04-23T00:21:51.186Z,100296
2018-04-23T00:24:17.991Z,100305
2018-04-23T00:26:45.099Z,100325
2018-04-23T00:29:12.097Z,100356
2018-04-23T00:31:38.848Z,100363
2018-04-23T00:34:05.737Z,100398
2018-04-23T00:36:33.300Z,100408
2018-04-23T00:39:00.717Z,100387
2018-04-23T00:41:28.279Z,100368
2018-04-23T00:43:55.208Z,100376
2018-04-23T00:46:21.902Z,100376
2018-04-23T00:48:49.593Z,100379
2018-04-23T00:51:16.427Z,100379
2018-04-23T00:53:43.286Z,100394
2018-04-23T00:56:10.199Z,100412
2018-04-23T00:58:37.808Z,100405
2018-04-23T01:01:04.544Z,100408
2018-04-23T01:03:31.457Z,100401
2018-04-23T01:05:58.376Z,100383
2018-04-23T01:08:25.934Z,100380
2018-04-23T01:10:53.451Z,100376
2018-04-23T01:13:20.257Z,100378
2018-04-23T01:15:46.988Z,100372
2018-04-23T01:18:14.437Z,100367
2018-04-23T01:20:41.963Z,100367
2018-04-23T01:23:08.669Z,100364
2018-04-23T01:25:35.693Z,100368
2018-04-23T01:28:03.327Z,100369
2018-04-23T01:30:30.208Z,100371
2018-04-23T01:32:57.180Z,100365
2018-04-23T01:35:23.891Z,100364
2018-04-23T01:37:50.715Z,100375
2018-04-23T01:42:52.578Z,100363
2018-04-23T01:45:19.513Z,100365
2018-04-23T01:47:46.345Z,100367
2018-04-23T01:50:14.154Z,100363
2018-04-23T01:52:40.907Z,100364
2018-04-23T01:55:07.832Z,100371
2018-04-23T01:57:35.442Z,100369
2018-04-23T02:00:02.297Z,100362
2018-04-23T02:02:29.073Z,100360
2018-04-23T02:04:56.852Z,100364
2018-04-23T02:07:23.762Z,100368
2018-04-23T02:09:50.687Z,100368
2018-04-23T02:12:18.574Z,100370
2018-04-23T02:14:45.307Z,100372
2018-04-23T02:17:12.958Z,100368
2018-04-23T02:19:39.803Z,100375
2018-04-23T02:22:06.688Z,100364
2018-04-23T02:24:35.212Z,100379
2018-04-23T02:27:01.959Z,100386
2018-04-23T02:29:28.671Z,100387
2018-04-23T02:31:55.562Z,100384
2018-04-23T02:34:22.278Z,100385
2018-04-23T02:36:49.388Z,100388
2018-04-23T02:39:16.770Z,100389
2018-04-23T02:41:43.622Z,100398
2018-04-23T02:44:10.585Z,100398
2018-04-23T02:46:37.470Z,100407
2018-04-23T02:49:04.219Z,100403
2018-04-23T02:51:30.938Z,100407
2018-04-23T02:53:58.443Z,100401
2018-04-23T02:56:25.203Z,100393
2018-04-23T02:58:52.062Z,100395
2018-04-23T03:01:18.782Z,100400
2018-04-23T03:03:45.612Z,100395
2018-04-23T03:06:12.719Z,100406
2018-04-23T03:08:39.449Z,100404
2018-04-23T03:11:06.947Z,100404
2018-04-23T03:13:33.729Z,100402
2018-04-23T03:16:01.284Z,100404
2018-04-23T03:18:28.148Z,100399
2018-04-23T03:20:55.779Z,100407
2018-04-23T03:23:23.294Z,100412
2018-04-23T03:25:50.075Z,100412
2018-04-23T03:28:16.912Z,100419
2018-04-23T03:30:43.819Z,100429
2018-04-23T03:33:10.755Z,100434
2018-04-23T03:35:37.659Z,100433
2018-04-23T03:38:04.494Z,100433
2018-04-23T03:40:31.329Z,100442
2018-04-23T03:42:58.033Z,100443
2018-04-23T03:45:24.788Z,100446
2018-04-23T03:47:51.593Z,100445
2018-04-23T03:50:19.075Z,100450
2018-04-23T03:52:45.882Z,100447
2018-04-23T03:55:13.674Z,100448
2018-04-23T03:57:40.467Z,100447
2018-04-23T04:00:07.932Z,100452
2018-04-23T04:02:34.777Z,100447
2018-04-23T04:05:03.213Z,100450
2018-04-23T04:07:30.083Z,100450
2018-04-23T04:09:56.785Z,100452
2018-04-23T04:12:41.815Z,100450
2018-04-23T04:15:26.645Z,100456
2018-04-23T04:21:14.560Z,100457
2018-04-23T04:23:52.850Z,100465
2018-04-23T04:26:21.955Z,100464
2018-04-23T04:28:51.009Z,100470
2018-04-23T04:31:19.319Z,100468
2018-04-23T04:33:48.404Z,100467
2018-04-23T04:36:16.794Z,100471
2018-04-23T04:38:47.134Z,100472
2018-04-23T04:41:15.523Z,100477
2018-04-23T04:43:44.054Z,100475
2018-04-23T04:46:13.149Z,100474
2018-04-23T04:48:41.854Z,100479
2018-04-23T04:51:11.110Z,100485
2018-04-23T04:53:39.582Z,100479
2018-04-23T04:56:08.101Z,100485
2018-04-23T04:58:36.450Z,100484
2018-04-23T05:01:04.913Z,100489
2018-04-23T05:03:33.398Z,100489
2018-04-23T05:06:02.003Z,100488
2018-04-23T05:08:30.874Z,100488
2018-04-23T05:11:00.536Z,100501
2018-04-23T05:13:28.925Z,100495
2018-04-23T05:15:58.373Z,100502
2018-04-23T05:18:26.688Z,100500
2018-04-23T05:20:55.185Z,100507
2018-04-23T05:23:24.780Z,100508
2018-04-23T05:25:53.883Z,100517
2018-04-23T05:28:23.246Z,100509
2018-04-23T05:30:51.554Z,100520
2018-04-23T05:33:19.925Z,100522
2018-04-23T05:35:48.210Z,100523
2018-04-23T05:38:17.310Z,100524
2018-04-23T05:40:46.390Z,100515
2018-04-23T05:43:15.709Z,100522
2018-04-23T05:45:45.956Z,100521
2018-04-23T05:48:14.275Z,100518
2018-04-23T05:50:42.619Z,100528
2018-04-23T05:53:10.910Z,100523
2018-04-23T05:55:39.386Z,100527
2018-04-23T05:58:07.825Z,100508
2018-04-23T06:00:36.940Z,100527
2018-04-23T06:03:06.401Z,100528
2018-04-23T06:05:34.704Z,100535
2018-04-23T06:08:03.808Z,100541
2018-04-23T06:10:32.118Z,100540
2018-04-23T06:13:01.392Z,100540
2018-04-23T06:15:31.432Z,100545
2018-04-23T06:18:01.678Z,100557
2018-04-23T06:20:31.452Z,100556
2018-04-23T06:22:59.746Z,100565
2018-04-23T06:25:28.193Z,100570
2018-04-23T06:27:57.488Z,100579
2018-04-23T06:30:25.802Z,100575
2018-04-23T06:32:54.222Z,100587
2018-04-23T06:35:22.598Z,100586
2018-04-23T06:37:51.641Z,100589
2018-04-23T06:40:20.009Z,100590
2018-04-23T06:42:48.308Z,100591
2018-04-23T06:45:16.691Z,100586
2018-04-23T06:47:45.177Z,100591
2018-04-23T06:50:13.616Z,100596
2018-04-23T06:52:42.092Z,100594
2018-04-23T06:55:11.259Z,100596
2018-04-23T06:57:39.579Z,100606
2018-04-23T07:00:07.919Z,100600
2018-04-23T07:02:37.139Z,100599
2018-04-23T07:05:05.439Z,100601
2018-04-23T07:07:33.755Z,100600
2018-04-23T07:10:02.070Z,100602
2018-04-23T07:12:31.167Z,100614
2018-04-23T07:15:00.214Z,100609
2018-04-23T07:17:28.508Z,100611
2018-04-23T07:19:56.831Z,100617
2018-04-23T07:22:26.345Z,100621
2018-04-23T07:24:54.678Z,100619
2018-04-23T07:27:22.994Z,100621
2018-04-23T07:29:51.579Z,100616
2018-04-23T07:32:19.913Z,100623
2018-04-23T07:34:48.233Z,100625
2018-04-23T07:37:16.563Z,100628
2018-04-23T07:39:44.905Z,100630
2018-04-23T07:42:13.335Z,100630
2018-04-23T07:44:42.612Z,100622
2018-04-23T07:47:11.060Z,100629
2018-04-23T07:49:40.690Z,100624
2018-04-23T07:52:09.009Z,100624
2018-04-23T07:54:38.094Z,100626
2018-04-23T07:57:06.422Z,100632
2018-04-23T07:59:34.816Z,100627
2018-04-23T08:02:03.287Z,100634
2018-04-23T08:04:31.964Z,100629
2018-04-23T08:07:00.295Z,100634
2018-04-23T08:09:29.455Z,100639
2018-04-23T08:11:57.770Z,100635
2018-04-23T08:14:26.093Z,100638
2018-04-23T08:19:29.172Z,100646
2018-04-23T08:21:57.469Z,100649
2018-04-23T08:24:25.803Z,100650
2018-04-23T08:26:55.227Z,100643
2018-04-23T08:29:23.512Z,100647
2018-04-23T08:31:51.906Z,100642
2018-04-23T08:34:20.483Z,100643
2018-04-23T08:36:48.882Z,100651
2018-04-23T08:39:17.279Z,100660
2018-04-23T08:41:45.604Z,100655
2018-04-23T08:44:14.028Z,100656
2018-04-23T08:46:42.435Z,100648
2018-04-23T08:49:11.519Z,100644
2018-04-23T08:51:39.836Z,100647
2018-04-23T08:54:08.120Z,100660
2018-04-23T08:56:36.431Z,100662
2018-04-23T08:59:04.888Z,100663
2018-04-23T09:01:33.343Z,100657
2018-04-23T09:04:01.646Z,100657
2018-04-23T09:06:30.026Z,100678
2018-04-23T09:08:58.481Z,100668
2018-04-23T09:11:27.622Z,100668
2018-04-23T09:13:55.931Z,100672
2018-04-23T09:16:24.337Z,100670
2018-04-23T09:18:53.526Z,100674
2018-04-23T09:21:22.584Z,100678
2018-04-23T09:23:50.930Z,100675
2018-04-23T09:26:20.199Z,100680
2018-04-23T09:28:50.692Z,100686
2018-04-23T09:31:19.129Z,100699
2018-04-23T09:33:47.563Z,100705
2018-04-23T09:36:15.865Z,100698
2018-04-23T09:38:44.966Z,100711
2018-04-23T09:41:14.158Z,100705
2018-04-23T09:43:43.194Z,100653
2018-04-23T09:46:11.654Z,100711
2018-04-23T09:48:40.111Z,100724
2018-04-23T09:51:09.235Z,100701
2018-04-23T09:53:37.700Z,100715
2018-04-23T09:56:06.037Z,100718
2018-04-23T09:58:34.520Z,100716
2018-04-23T10:01:10.235Z,100710
2018-04-23T10:03:42.606Z,100714
2018-04-23T10:06:11.017Z,100711
2018-04-23T10:08:39.323Z,100708
2018-04-23T10:11:08.434Z,100709
2018-04-23T10:13:36.725Z,100703
2018-04-23T10:16:05.122Z,100709
2018-04-23T10:18:33.396Z,100719
2018-04-23T10:21:01.966Z,100715
2018-04-23T10:23:30.449Z,100727
2018-04-23T10:25:58.756Z,100729
2018-04-23T10:28:27.095Z,100713
2018-04-23T10:30:55.551Z,100722
2018-04-23T10:33:23.862Z,100725
2018-04-23T10:35:52.138Z,100729
2018-04-23T10:38:20.431Z,100717
2018-04-23T10:40:48.746Z,100745
2018-04-23T10:43:17.275Z,100745
2018-04-23T10:45:45.731Z,100733
2018-04-23T10:48:14.995Z,100726
2018-04-23T10:50:43.307Z,100718
2018-04-23T10:53:12.396Z,100715
2018-04-23T10:55:40.869Z,100726
2018-04-23T10:58:10.095Z,100716
2018-04-23T11:00:38.441Z,100712
2018-04-23T11:03:07.686Z,100719
2018-04-23T11:05:36.035Z,100729
2018-04-23T11:08:04.472Z,100732
2018-04-23T11:10:32.996Z,100725
2018-04-23T11:13:01.942Z,100722
2018-04-23T11:15:30.601Z,100727
2018-04-23T11:17:58.994Z,100730
2018-04-23T11:20:27.278Z,100725
2018-04-23T11:22:55.605Z,100723
2018-04-23T11:25:24.012Z,100728
2018-04-23T11:27:52.396Z,100727
2018-04-23T11:30:21.342Z,100721
2018-04-23T11:32:49.632Z,100716
2018-04-23T11:35:17.922Z,100721
2018-04-23T11:37:46.341Z,100722
2018-04-23T11:40:14.861Z,100725
2018-04-23T11:42:43.268Z,100737
2018-04-23T11:45:11.699Z,100725
2018-04-23T11:47:40.038Z,100733
2018-04-23T11:50:08.375Z,100723
2018-04-23T11:52:36.754Z,100723
2018-04-23T11:55:05.820Z,100701
2018-04-23T11:57:34.362Z,100726
2018-04-23T12:00:02.791Z,100729
2018-04-23T12:02:31.239Z,100721
2018-04-23T12:04:59.622Z,100724
2018-04-23T12:07:28.021Z,100710
2018-04-23T12:09:57.821Z,100714
2018-04-23T12:12:26.495Z,100723
2018-04-23T12:14:54.821Z,100735
2018-04-23T12:17:23.872Z,100719
2018-04-23T12:19:52.217Z,100721
2018-04-23T12:22:20.530Z,100721
2018-04-23T12:24:49.235Z,100715
2018-04-23T12:27:18.519Z,100723
2018-04-23T12:29:47.188Z,100718
2018-04-23T12:32:15.530Z,100717
2018-04-23T12:34:43.894Z,100712
2018-04-23T12:37:13.032Z,100718
2018-04-23T12:39:42.769Z,100703
2018-04-23T12:42:11.143Z,100697
2018-04-23T12:44:39.486Z,100694
2018-04-23T12:47:07.791Z,100709
2018-04-23T12:49:36.080Z,100707
2018-04-23T12:52:04.467Z,100703
2018-04-23T12:54:33.713Z,100704
2018-04-23T12:57:02.252Z,100695
2018-04-23T12:59:30.526Z,100699
2018-04-23T13:01:58.970Z,100694
2018-04-23T13:04:27.330Z,100705
2018-04-23T13:06:55.640Z,100694
2018-04-23T13:09:24.878Z,100693
2018-04-23T13:11:55.215Z,100697
2018-04-23T13:14:23.567Z,100698
2018-04-23T13:16:51.993Z,100693
2018-04-23T13:19:20.338Z,100696
2018-04-23T13:21:49.608Z,100699
2018-04-23T13:24:17.932Z,100685
2018-04-23T13:26:46.261Z,100685
2018-04-23T13:29:15.377Z,100684
2018-04-23T13:31:44.517Z,100679
2018-04-23T13:34:13.058Z,100691
2018-04-23T13:36:42.143Z,100690
2018-04-23T13:39:11.334Z,100697
2018-04-23T13:41:39.658Z,100684
2018-04-23T13:44:08.073Z,100689
2018-04-23T13:46:36.537Z,100686
2018-04-23T13:49:05.121Z,100674
2018-04-23T13:51:33.530Z,100679
2018-04-23T13:54:01.897Z,100672
2018-04-23T13:56:30.211Z,100691
2018-04-23T13:58:59.328Z,100672
2018-04-23T14:01:27.714Z,100670
2018-04-23T14:03:56.062Z,100671
2018-04-23T14:06:25.199Z,100686
2018-04-23T14:08:53.548Z,100665
2018-04-23T14:11:22.647Z,100668
2018-04-23T14:13:50.954Z,100665
2018-04-23T14:16:21.215Z,100668
2018-04-23T14:18:49.516Z,100668
2018-04-23T14:21:18.602Z,100674
2018-04-23T14:23:47.722Z,100664
2018-04-23T14:26:16.116Z,100661
2018-04-23T14:28:44.398Z,100671
2018-04-23T14:31:12.698Z,100671
2018-04-23T14:33:41.156Z,100675
2018-04-23T14:36:09.529Z,100665
2018-04-23T14:38:37.868Z,100668
2018-04-23T14:41:07.132Z,100660
2018-04-23T14:43:35.438Z,100668
2018-04-23T14:46:03.803Z,100660
2018-04-23T14:48:32.124Z,100666
2018-04-23T14:51:00.678Z,100660
2018-04-23T14:53:29.889Z,100658
2018-04-23T14:55:59.193Z,100660
2018-04-23T14:58:27.524Z,100665
2018-04-23T15:00:56.049Z,100663
2018-04-23T15:03:25.228Z,100656
2018-04-23T15:05:53.638Z,100670
2018-04-23T15:08:21.965Z,100662
2018-04-23T15:10:50.302Z,100665
2018-04-23T15:13:18.800Z,100669
2018-04-23T15:15:48.364Z,100677
2018-04-23T15:18:17.467Z,100670
2018-04-23T15:20:48.912Z,100674
2018-04-23T15:23:18.654Z,100693
2018-04-23T15:25:47.231Z,100682
2018-04-23T15:28:15.599Z,100692
2018-04-23T15:30:43.895Z,100686
2018-04-23T15:33:12.244Z,100692
2018-04-23T15:35:40.570Z,100706
2018-04-23T15:38:09.014Z,100713
2018-04-23T15:40:37.893Z,100706
2018-04-23T15:43:06.226Z,100706
2018-04-23T15:45:34.680Z,100714
2018-04-23T15:48:03.325Z,100725
2018-04-23T15:50:32.550Z,100707
2018-04-23T15:53:00.901Z,100705
2018-04-23T15:55:30.076Z,100697
2018-04-23T15:57:58.541Z,100703
2018-04-23T16:00:26.888Z,100696
2018-04-23T16:02:55.368Z,100674
2018-04-23T16:05:23.726Z,100695
2018-04-23T16:07:52.963Z,100685
2018-04-23T16:10:21.640Z,100695
2018-04-23T16:12:50.264Z,100705
2018-04-23T16:15:18.571Z,100701
2018-04-23T16:17:47.850Z,100706
2018-04-23T16:20:16.267Z,100696
2018-04-23T16:22:44.643Z,100695
2018-04-23T16:25:12.992Z,100699
2018-04-23T16:27:42.161Z,100693
2018-04-23T16:30:10.612Z,100705
2018-04-23T16:32:39.205Z,100691
2018-04-23T16:35:07.747Z,100710
2018-04-23T16:37:36.171Z,100706
2018-04-23T16:40:04.546Z,100721
2018-04-23T16:42:34.203Z,100717
2018-04-23T16:45:04.874Z,100734
2018-04-23T16:47:33.172Z,100719
2018-04-23T16:50:01.722Z,100717
2018-04-23T16:52:30.172Z,100711
2018-04-23T16:54:58.585Z,100721
2018-04-23T16:57:26.963Z,100714
2018-04-23T16:59:55.693Z,100709
2018-04-23T17:02:25.010Z,100719
2018-04-23T17:04:53.410Z,100722
2018-04-23T17:07:22.891Z,100731
2018-04-23T17:09:51.324Z,100716
2018-04-23T17:12:19.746Z,100724
2018-04-23T17:14:48.354Z,100729
2018-04-23T17:17:16.798Z,100732
2018-04-23T17:19:46.040Z,100721
2018-04-23T17:22:14.481Z,100720
2018-04-23T17:24:42.882Z,100721
2018-04-23T17:27:11.457Z,100735
2018-04-23T17:29:39.933Z,100733
2018-04-23T17:32:09.040Z,100732
2018-04-23T17:34:37.522Z,100735
2018-04-23T17:37:05.924Z,100738
2018-04-23T17:39:34.255Z,100736
2018-04-23T17:42:02.615Z,100738
2018-04-23T17:44:31.732Z,100739
2018-04-23T17:47:00.209Z,100744
2018-04-23T17:49:29.197Z,100746
2018-04-23T17:51:57.564Z,100749
2018-04-23T17:54:26.050Z,100750
2018-04-23T17:56:54.495Z,100756
2018-04-23T17:59:22.857Z,100763
2018-04-23T18:01:51.284Z,100755
2018-04-23T18:04:19.708Z,100759
2018-04-23T18:06:48.233Z,100753
2018-04-23T18:09:16.657Z,100759
2018-04-23T18:11:45.198Z,100766
2018-04-23T18:14:13.505Z,100763
2018-04-23T18:16:41.869Z,100762
2018-04-23T18:19:10.204Z,100762
2018-04-23T18:21:39.338Z,100758
2018-04-23T18:24:08.327Z,100756
2018-04-23T18:26:36.717Z,100754
2018-04-23T18:29:05.050Z,100752
2018-04-23T18:31:34.151Z,100760
2018-04-23T18:34:03.367Z,100762
2018-04-23T18:36:31.795Z,100766
2018-04-23T18:39:00.213Z,100766
2018-04-23T18:41:28.804Z,100782
2018-04-23T18:43:57.323Z,100779
2018-04-23T18:46:25.755Z,100782
2018-04-23T18:48:54.095Z,100768
2018-04-23T18:51:22.803Z,100769
2018-04-23T18:53:52.044Z,100768
2018-04-23T18:56:21.507Z,100773
2018-04-23T18:58:50.658Z,100775
2018-04-23T19:01:20.101Z,100771
2018-04-23T19:03:48.809Z,100776
2018-04-23T19:06:17.374Z,100782
2018-04-23T19:08:47.021Z,100783
2018-04-23T19:11:15.571Z,100787
2018-04-23T19:13:44.170Z,100786
2018-04-23T19:16:12.585Z,100785
2018-04-23T19:18:41.283Z,100794
2018-04-23T19:21:10.498Z,100793
2018-04-23T19:23:38.912Z,100797
2018-04-23T19:26:07.303Z,100799
2018-04-23T19:28:35.747Z,100797
2018-04-23T19:31:04.106Z,100800
2018-04-23T19:33:33.373Z,100805
2018-04-23T19:36:01.887Z,100812
2018-04-23T19:38:30.379Z,100816
2018-04-23T19:40:58.948Z,100829
2018-04-23T19:43:27.305Z,100832
2018-04-23T19:45:55.724Z,100838
2018-04-23T19:48:24.047Z,100837
2018-04-23T19:50:53.227Z,100839
2018-04-23T19:53:21.614Z,100838
2018-04-23T19:55:50.040Z,100837
2018-04-23T19:58:18.805Z,100839
2018-04-23T20:00:48.002Z,100841
2018-04-23T20:03:16.405Z,100849
2018-04-23T20:05:44.757Z,100845
2018-04-23T20:08:13.920Z,100834
2018-04-23T20:10:42.263Z,100837
2018-04-23T20:13:10.663Z,100836
2018-04-23T20:15:39.140Z,100829
2018-04-23T20:18:07.632Z,100833
2018-04-23T20:20:36.018Z,100836
2018-04-23T20:23:04.557Z,100833
2018-04-23T20:25:32.802Z,100840
2018-04-23T20:28:03.042Z,100836
2018-04-23T20:30:31.463Z,100842
2018-04-23T20:32:59.788Z,100839
2018-04-23T20:35:28.319Z,100840
2018-04-23T20:37:57.727Z,100833
2018-04-23T20:40:26.049Z,100835
2018-04-23T20:42:54.334Z,100835
2018-04-23T20:45:22.685Z,100833
2018-04-23T20:47:51.828Z,100828
2018-04-23T20:50:20.154Z,100825
2018-04-23T20:52:48.590Z,100836
2018-04-23T20:55:16.997Z,100831
2018-04-23T20:57:45.406Z,100839
2018-04-23T21:00:13.764Z,100839
2018-04-23T21:02:42.134Z,100842
2018-04-23T21:05:11.232Z,100845
2018-04-23T21:07:39.591Z,100843
2018-04-23T21:10:07.889Z,100844
2018-04-23T21:12:36.383Z,100845
2018-04-23T21:15:05.494Z,100847
2018-04-23T21:17:34.628Z,100843
2018-04-23T21:20:02.999Z,100846
2018-04-23T21:22:31.401Z,100844
2018-04-23T21:24:59.718Z,100842
2018-04-23T21:27:28.787Z,100843
2018-04-23T21:29:58.687Z,100839
2018-04-23T21:32:27.014Z,100838
2018-04-23T21:34:55.421Z,100843
2018-04-23T21:37:23.758Z,100843
2018-04-23T21:39:52.965Z,100840
2018-04-23T21:42:21.270Z,100844
2018-04-23T21:44:49.727Z,100840
2018-04-23T21:47:18.941Z,100843
2018-04-23T21:49:47.551Z,100841
2018-04-23T21:52:15.969Z,100844
2018-04-23T21:54:45.015Z,100846
2018-04-23T21:57:13.410Z,100851
2018-04-23T21:59:41.730Z,100853
2018-04-23T22:02:11.983Z,100859
2018-04-23T22:04:40.286Z,100861
2018-04-23T22:07:08.827Z,100856
2018-04-23T22:09:37.230Z,100870
2018-04-23T22:12:05.617Z,100867
2018-04-23T22:14:34.065Z,100870
2018-04-23T22:17:03.141Z,100873
2018-04-23T22:19:32.353Z,100869
2018-04-23T22:22:00.653Z,100873
2018-04-23T22:24:29.010Z,100880
2018-04-23T22:26:57.305Z,100879
2018-04-23T22:29:25.674Z,100877
2018-04-23T22:31:53.981Z,100876
2018-04-23T22:34:22.309Z,100879
2018-04-23T22:36:50.781Z,100878
2018-04-23T22:39:20.201Z,100869
2018-04-23T22:41:48.489Z,100880
2018-04-23T22:44:16.866Z,100881
2018-04-23T22:46:45.230Z,100888
2018-04-23T22:49:14.490Z,100892
2018-04-23T22:51:43.626Z,100889
2018-04-23T22:54:11.929Z,100884
2018-04-23T22:56:40.268Z,100879
2018-04-23T22:59:09.441Z,100885
2018-04-23T23:01:37.755Z,100881
2018-04-23T23:04:06.119Z,100881
2018-04-23T23:06:35.229Z,100877
2018-04-23T23:09:03.583Z,100879
2018-04-23T23:11:32.033Z,100884
2018-04-23T23:14:00.534Z,100886
2018-04-23T23:16:28.856Z,100892
2018-04-23T23:18:57.167Z,100895
2018-04-23T23:21:25.497Z,100900
2018-04-23T23:23:53.840Z,100893
2018-04-23T23:26:22.181Z,100901
2018-04-23T23:28:50.625Z,100894
2018-04-23T23:31:19.665Z,100896
2018-04-23T23:33:49.209Z,100887
2018-04-23T23:36:17.669Z,100893
2018-04-23T23:38:46.009Z,100887
2018-04-23T23:41:14.335Z,100880
2018-04-23T23:43:42.628Z,100878
2018-04-23T23:46:11.708Z,100885
2018-04-23T23:48:40.030Z,100883
2018-04-23T23:51:08.470Z,100880
2018-04-23T23:53:36.765Z,100878
2018-04-23T23:56:05.887Z,100875
2018-04-23T23:58:34.252Z,100873
